createdAt,value
2023-03-29T00:01:36.150Z,99418.41
2023-03-29T00:04:06.461Z,99411.84
2023-03-29T00:06:34.022Z,99425.22
2023-03-29T00:09:01.831Z,99411.09
2023-03-29T00:11:28.470Z,99423.06
2023-03-29T00:13:55.150Z,99420.72
2023-03-29T00:16:22.298Z,99399.53
2023-03-29T00:18:49.093Z,99414.56
2023-03-29T00:21:15.892Z,99391.13
2023-03-29T00:23:42.589Z,99391.13
2023-03-29T00:26:09.291Z,99400.25
2023-03-29T00:28:35.988Z,99399.97
2023-03-29T00:31:11.698Z,99419.47
2023-03-29T00:33:38.732Z,99403.78
2023-03-29T00:36:07.386Z,99408.81
2023-03-29T00:38:34.533Z,99396.59
2023-03-29T00:41:01.525Z,99423.53
2023-03-29T00:43:28.275Z,99408.66
2023-03-29T00:45:54.835Z,99420.75
2023-03-29T00:48:29.915Z,99433.41
2023-03-29T00:51:09.411Z,99405.91
2023-03-29T00:53:42.623Z,99415.44
2023-03-29T00:56:14.243Z,99421.31
2023-03-29T00:58:54.768Z,99395.66
2023-03-29T01:01:28.442Z,99428.31
2023-03-29T01:04:03.257Z,99430.59
2023-03-29T01:06:33.953Z,99416.28
2023-03-29T01:09:04.384Z,99425.66
2023-03-29T01:11:50.006Z,99420.78
2023-03-29T01:14:39.310Z,99436.63
2023-03-29T01:17:06.901Z,99418.66
2023-03-29T01:19:42.215Z,99404.34
2023-03-29T01:22:28.331Z,99423.13
2023-03-29T01:25:20.807Z,99418.19
2023-03-29T01:28:06.349Z,99426.28
2023-03-29T01:30:45.965Z,99419.84
2023-03-29T01:33:23.349Z,99389.25
2023-03-29T01:36:12.179Z,99387.16
2023-03-29T01:38:48.505Z,99379.03
2023-03-29T01:41:15.782Z,99362.03
2023-03-29T01:43:56.717Z,99344.16
2023-03-29T01:46:41.615Z,99383.25
2023-03-29T01:49:16.905Z,99390.53
2023-03-29T01:51:58.439Z,99385.34
2023-03-29T01:54:36.287Z,99382.22
2023-03-29T01:57:05.798Z,99372.03
2023-03-29T01:59:36.011Z,99381.50
2023-03-29T02:02:08.271Z,99356.00
2023-03-29T02:04:39.735Z,99373.47
2023-03-29T02:07:08.685Z,99347.06
2023-03-29T02:09:37.684Z,99318.34
2023-03-29T02:12:07.804Z,99335.16
2023-03-29T02:14:35.082Z,99336.81
2023-03-29T02:17:19.889Z,99373.13
2023-03-29T02:19:50.154Z,99350.63
2023-03-29T02:22:24.497Z,99364.63
2023-03-29T02:24:59.093Z,99370.47
2023-03-29T02:27:29.610Z,99339.06
2023-03-29T02:29:58.247Z,99347.94
2023-03-29T02:32:40.390Z,99345.56
2023-03-29T02:35:15.058Z,99326.53
2023-03-29T02:37:49.431Z,99349.09
2023-03-29T02:40:17.935Z,99353.97
2023-03-29T02:42:46.128Z,99338.28
2023-03-29T02:45:16.228Z,99334.63
2023-03-29T02:47:48.486Z,99309.56
2023-03-29T02:50:15.751Z,99288.38
2023-03-29T02:52:50.141Z,99339.63
2023-03-29T02:55:18.849Z,99340.22
2023-03-29T02:57:45.479Z,99327.19
2023-03-29T03:00:14.508Z,99335.03
2023-03-29T03:02:41.850Z,99343.91
2023-03-29T03:05:10.361Z,99351.09
2023-03-29T03:07:37.331Z,99327.78
2023-03-29T03:10:04.513Z,99332.47
2023-03-29T03:12:31.328Z,99331.34
2023-03-29T03:14:58.269Z,99337.22
2023-03-29T03:17:25.295Z,99335.28
2023-03-29T03:19:53.157Z,99333.59
2023-03-29T03:22:20.387Z,99332.63
2023-03-29T03:24:47.166Z,99312.59
2023-03-29T03:27:13.974Z,99288.28
2023-03-29T03:29:41.450Z,99333.69
2023-03-29T03:32:28.723Z,99365.38
2023-03-29T03:35:21.949Z,99354.22
2023-03-29T03:37:48.651Z,99335.88
2023-03-29T03:40:17.303Z,99341.38
2023-03-29T03:42:44.436Z,99343.41
2023-03-29T03:45:12.257Z,99308.78
2023-03-29T03:47:52.423Z,99322.13
2023-03-29T03:50:24.513Z,99307.94
2023-03-29T03:52:52.061Z,99325.06
2023-03-29T03:55:19.929Z,99324.88
2023-03-29T03:58:07.171Z,99323.38
2023-03-29T04:00:34.439Z,99322.94
2023-03-29T04:03:19.369Z,99304.78
2023-03-29T04:05:47.545Z,99292.72
2023-03-29T04:08:16.422Z,99304.72
2023-03-29T04:11:07.637Z,99303.44
2023-03-29T04:13:37.185Z,99291.22
2023-03-29T04:16:39.080Z,99327.91
2023-03-29T04:19:25.669Z,99323.97
2023-03-29T04:21:52.526Z,99321.16
2023-03-29T04:24:19.198Z,99313.00
2023-03-29T04:27:04.209Z,99327.72
2023-03-29T04:29:30.986Z,99320.13
2023-03-29T04:32:14.141Z,99333.69
2023-03-29T04:34:53.210Z,99336.00
2023-03-29T04:37:22.026Z,99339.72
2023-03-29T04:39:52.417Z,99352.81
2023-03-29T04:42:19.228Z,99343.81
2023-03-29T04:44:47.199Z,99344.88
2023-03-29T04:47:21.194Z,99341.41
2023-03-29T04:49:56.163Z,99322.97
2023-03-29T04:52:37.167Z,99324.09
2023-03-29T04:55:07.128Z,99360.09
2023-03-29T04:57:56.830Z,99350.22
2023-03-29T05:00:31.436Z,99347.34
2023-03-29T05:03:21.902Z,99349.84
2023-03-29T05:05:54.998Z,99359.97
2023-03-29T05:08:21.693Z,99333.84
2023-03-29T05:11:25.268Z,99359.34
2023-03-29T05:13:52.653Z,99333.06
2023-03-29T05:16:20.554Z,99361.09
2023-03-29T05:18:47.369Z,99365.06
2023-03-29T05:21:14.235Z,99355.75
2023-03-29T05:23:44.871Z,99355.16
2023-03-29T05:26:37.328Z,99353.03
2023-03-29T05:29:04.624Z,99357.00
2023-03-29T05:31:32.683Z,99327.06
2023-03-29T05:33:59.704Z,99361.28
2023-03-29T05:36:28.944Z,99352.75
2023-03-29T05:38:57.112Z,99366.59
2023-03-29T05:41:24.754Z,99339.31
2023-03-29T05:44:10.333Z,99341.34
2023-03-29T05:46:39.238Z,99309.44
2023-03-29T05:49:07.221Z,99316.66
2023-03-29T05:51:48.737Z,99369.56
2023-03-29T05:54:15.537Z,99367.25
2023-03-29T05:56:42.321Z,99382.31
2023-03-29T05:59:09.442Z,99367.06
2023-03-29T06:01:36.762Z,99385.38
2023-03-29T06:04:07.802Z,99395.22
2023-03-29T06:06:43.834Z,99375.56
2023-03-29T06:09:11.225Z,99391.28
2023-03-29T06:11:56.355Z,99382.56
2023-03-29T06:14:35.665Z,99342.91
2023-03-29T06:17:19.976Z,99342.13
2023-03-29T06:19:47.611Z,99394.25
2023-03-29T06:22:15.134Z,99401.19
2023-03-29T06:24:42.397Z,99391.38
2023-03-29T06:27:17.584Z,99360.44
2023-03-29T06:29:44.558Z,99398.34
2023-03-29T06:32:11.875Z,99386.91
2023-03-29T06:34:47.385Z,99374.63
2023-03-29T06:37:33.673Z,99364.50
2023-03-29T06:40:13.371Z,99419.00
2023-03-29T06:42:45.118Z,99411.84
2023-03-29T06:45:29.523Z,99419.81
2023-03-29T06:47:58.665Z,99410.94
2023-03-29T06:50:26.364Z,99415.50
2023-03-29T06:53:02.713Z,99419.59
2023-03-29T06:55:31.653Z,99426.78
2023-03-29T06:58:08.290Z,99413.13
2023-03-29T07:00:38.967Z,99387.72
2023-03-29T07:03:20.421Z,99371.38
2023-03-29T07:05:51.913Z,99384.13
2023-03-29T07:08:21.289Z,99412.09
2023-03-29T07:10:56.511Z,99392.28
2023-03-29T07:13:42.444Z,99394.25
2023-03-29T07:16:13.793Z,99418.25
2023-03-29T07:19:15.973Z,99380.47
2023-03-29T07:21:54.962Z,99431.63
2023-03-29T07:24:28.338Z,99413.78
2023-03-29T07:27:03.291Z,99366.88
2023-03-29T07:29:32.563Z,99440.00
2023-03-29T07:32:00.215Z,99434.44
2023-03-29T07:34:42.430Z,99408.69
2023-03-29T07:37:14.778Z,99412.09
2023-03-29T07:39:43.798Z,99428.44
2023-03-29T07:42:28.780Z,99428.88
2023-03-29T07:44:55.835Z,99413.44
2023-03-29T07:47:23.184Z,99437.56
2023-03-29T07:49:50.292Z,99426.16
2023-03-29T07:52:17.306Z,99421.09
2023-03-29T07:54:44.044Z,99443.84
2023-03-29T07:57:27.429Z,99424.34
2023-03-29T07:59:56.662Z,99430.53
2023-03-29T08:02:27.305Z,99437.69
2023-03-29T08:04:57.370Z,99435.06
2023-03-29T08:07:24.824Z,99454.03
2023-03-29T08:10:11.332Z,99443.25
2023-03-29T08:12:52.590Z,99451.38
2023-03-29T08:15:24.896Z,99453.41
2023-03-29T08:17:51.878Z,99439.88
2023-03-29T08:20:19.189Z,99465.34
2023-03-29T08:22:49.252Z,99458.75
2023-03-29T08:25:30.752Z,99453.13
2023-03-29T08:27:58.935Z,99450.25
2023-03-29T08:30:37.094Z,99432.78
2023-03-29T08:33:05.220Z,99427.81
2023-03-29T08:35:32.107Z,99429.03
2023-03-29T08:38:24.839Z,99429.16
2023-03-29T08:40:52.068Z,99432.09
2023-03-29T08:43:19.623Z,99433.13
2023-03-29T08:46:18.960Z,99435.69
2023-03-29T08:48:53.796Z,99420.63
2023-03-29T08:51:27.894Z,99415.34
2023-03-29T08:54:46.941Z,99432.63
2023-03-29T08:57:57.727Z,99430.03
2023-03-29T09:00:43.250Z,99428.25
2023-03-29T09:03:34.356Z,99437.47
2023-03-29T09:06:12.685Z,99393.84
2023-03-29T09:08:46.679Z,99410.59
2023-03-29T09:11:46.928Z,99412.63
2023-03-29T09:14:30.144Z,99424.81
2023-03-29T09:17:15.743Z,99430.53
2023-03-29T09:20:16.224Z,99419.09
2023-03-29T09:23:05.052Z,99417.72
2023-03-29T09:25:58.649Z,99431.00
2023-03-29T09:28:41.160Z,99425.44
2023-03-29T09:31:16.641Z,99427.88
2023-03-29T09:33:56.553Z,99419.13
2023-03-29T09:36:34.400Z,99420.03
2023-03-29T09:39:01.815Z,99383.81
2023-03-29T09:41:41.996Z,99411.22
2023-03-29T09:44:27.660Z,99405.28
2023-03-29T09:47:11.830Z,99393.44
2023-03-29T09:49:47.070Z,99372.72
2023-03-29T09:52:16.842Z,99408.59
2023-03-29T09:54:50.170Z,99399.81
2023-03-29T09:57:36.422Z,99392.59
2023-03-29T10:00:06.023Z,99393.44
2023-03-29T10:02:40.891Z,99397.78
2023-03-29T10:05:16.244Z,99375.63
2023-03-29T10:07:57.603Z,99363.19
2023-03-29T10:10:30.616Z,99382.56
2023-03-29T10:13:01.516Z,99370.47
2023-03-29T10:15:30.334Z,99368.50
2023-03-29T10:18:11.395Z,99387.53
2023-03-29T10:20:40.129Z,99382.09
2023-03-29T10:23:08.693Z,99381.97
2023-03-29T10:25:42.841Z,99372.97
2023-03-29T10:28:17.580Z,99365.00
2023-03-29T10:30:52.352Z,99367.84
2023-03-29T10:33:23.953Z,99371.44
2023-03-29T10:35:51.611Z,99352.56
2023-03-29T10:38:20.884Z,99353.94
2023-03-29T10:40:53.072Z,99340.72
2023-03-29T10:43:19.640Z,99360.25
2023-03-29T10:45:51.746Z,99361.97
2023-03-29T10:48:19.563Z,99351.75
2023-03-29T10:50:53.046Z,99351.56
2023-03-29T10:53:26.424Z,99346.06
2023-03-29T10:56:13.755Z,99324.25
2023-03-29T10:59:01.450Z,99344.06
2023-03-29T11:01:56.600Z,99350.91
2023-03-29T11:04:44.512Z,99342.44
2023-03-29T11:07:34.582Z,99344.00
2023-03-29T11:10:26.055Z,99343.53
2023-03-29T11:13:19.594Z,99304.06
2023-03-29T11:16:10.747Z,99326.41
2023-03-29T11:18:40.513Z,99340.81
2023-03-29T11:21:19.136Z,99344.94
2023-03-29T11:24:22.000Z,99340.53
2023-03-29T11:26:57.735Z,99330.06
2023-03-29T11:29:27.272Z,99336.69
2023-03-29T11:32:32.372Z,99334.19
2023-03-29T11:35:01.580Z,99337.13
2023-03-29T11:37:37.842Z,99325.72
2023-03-29T11:40:15.196Z,99344.50
2023-03-29T11:42:47.153Z,99331.59
2023-03-29T11:45:30.567Z,99326.72
2023-03-29T11:48:00.799Z,99317.41
2023-03-29T11:50:51.071Z,99321.56
2023-03-29T11:53:25.618Z,99311.88
2023-03-29T11:55:54.354Z,99280.88
2023-03-29T11:58:27.620Z,99288.63
2023-03-29T12:00:58.228Z,99299.19
2023-03-29T12:03:46.752Z,99283.31
2023-03-29T12:06:36.041Z,99299.69
2023-03-29T12:09:07.492Z,99269.25
2023-03-29T12:11:48.792Z,99289.56
2023-03-29T12:14:21.308Z,99290.09
2023-03-29T12:17:01.101Z,99268.50
2023-03-29T12:19:41.013Z,99287.97
2023-03-29T12:22:09.950Z,99291.09
2023-03-29T12:24:43.639Z,99290.47
2023-03-29T12:27:20.449Z,99286.06
2023-03-29T12:30:02.457Z,99262.22
2023-03-29T12:32:53.289Z,99283.97
2023-03-29T12:36:21.454Z,99272.91
2023-03-29T12:39:11.482Z,99274.69
2023-03-29T12:42:26.301Z,99230.94
2023-03-29T12:45:20.034Z,99268.91
2023-03-29T12:47:49.047Z,99282.25
2023-03-29T12:50:25.661Z,99271.38
2023-03-29T12:52:53.158Z,99254.38
2023-03-29T12:55:49.682Z,99233.13
2023-03-29T12:58:41.548Z,99240.94
2023-03-29T13:01:33.255Z,99232.66
2023-03-29T13:04:01.141Z,99244.38
2023-03-29T13:06:33.704Z,99250.19
2023-03-29T13:09:03.548Z,99242.50
2023-03-29T13:11:37.407Z,99226.97
2023-03-29T13:14:18.931Z,99238.09
2023-03-29T13:16:46.161Z,99225.19
2023-03-29T13:19:46.646Z,99241.56
2023-03-29T13:22:16.158Z,99211.16
2023-03-29T13:25:08.457Z,99226.56
2023-03-29T13:27:52.841Z,99213.63
2023-03-29T13:30:31.709Z,99209.09
2023-03-29T13:33:38.060Z,99211.38
2023-03-29T13:36:22.824Z,99179.19
2023-03-29T13:38:52.096Z,99203.66
2023-03-29T13:41:40.166Z,99206.28
2023-03-29T13:44:22.187Z,99201.72
2023-03-29T13:47:02.522Z,99210.91
2023-03-29T13:49:33.480Z,99181.59
2023-03-29T13:52:16.415Z,99219.94
2023-03-29T13:55:00.648Z,99200.75
2023-03-29T13:57:40.024Z,99183.56
2023-03-29T14:00:20.263Z,99175.25
2023-03-29T14:02:55.354Z,99197.69
2023-03-29T14:05:38.694Z,99199.13
2023-03-29T14:08:23.469Z,99190.63
2023-03-29T14:10:50.768Z,99154.81
2023-03-29T14:13:22.250Z,99184.09
2023-03-29T14:16:04.636Z,99185.63
2023-03-29T14:18:41.121Z,99159.16
2023-03-29T14:21:11.501Z,99166.41
2023-03-29T14:23:38.704Z,99180.94
2023-03-29T14:26:19.833Z,99185.75
2023-03-29T14:28:59.090Z,99183.88
2023-03-29T14:31:45.133Z,99156.50
2023-03-29T14:34:18.346Z,99155.50
2023-03-29T14:36:48.897Z,99164.97
2023-03-29T14:39:21.442Z,99164.84
2023-03-29T14:41:59.295Z,99167.09
2023-03-29T14:44:30.994Z,99159.13
2023-03-29T14:46:58.309Z,99135.19
2023-03-29T14:49:25.370Z,99153.44
2023-03-29T14:51:53.618Z,99160.41
2023-03-29T14:54:32.737Z,99147.13
2023-03-29T14:57:00.052Z,99172.31
2023-03-29T14:59:38.414Z,99177.28
2023-03-29T15:02:23.024Z,99164.03
2023-03-29T15:05:42.445Z,99164.09
2023-03-29T15:08:15.602Z,99166.97
2023-03-29T15:10:44.763Z,99160.03
2023-03-29T15:13:18.485Z,99139.00
2023-03-29T15:15:46.247Z,99151.69
2023-03-29T15:18:17.105Z,99137.81
2023-03-29T15:20:45.026Z,99128.66
2023-03-29T15:23:14.702Z,99127.25
2023-03-29T15:26:07.387Z,99140.44
2023-03-29T15:28:35.568Z,99122.19
2023-03-29T15:31:11.961Z,99131.03
2023-03-29T15:33:41.654Z,99124.72
2023-03-29T15:36:11.120Z,99120.78
2023-03-29T15:38:44.581Z,99130.28
2023-03-29T15:41:15.575Z,99136.22
2023-03-29T15:43:42.884Z,99135.72
2023-03-29T15:46:13.050Z,99137.22
2023-03-29T15:48:39.726Z,99124.59
2023-03-29T15:51:07.150Z,99121.19
2023-03-29T15:53:34.222Z,99134.84
2023-03-29T15:56:02.084Z,99130.03
2023-03-29T15:58:31.675Z,99126.19
2023-03-29T16:01:00.722Z,99098.75
2023-03-29T16:03:27.347Z,99091.84
2023-03-29T16:05:56.737Z,99113.41
2023-03-29T16:08:25.128Z,99107.00
2023-03-29T16:10:52.018Z,99090.28
2023-03-29T16:13:18.781Z,99111.94
2023-03-29T16:15:45.935Z,99087.22
2023-03-29T16:18:12.454Z,99127.84
2023-03-29T16:20:39.122Z,99108.88
2023-03-29T16:23:09.401Z,99126.19
2023-03-29T16:25:38.384Z,99118.03
2023-03-29T16:28:05.633Z,99100.13
2023-03-29T16:30:32.706Z,99126.78
2023-03-29T16:32:59.592Z,99121.88
2023-03-29T16:35:32.119Z,99116.53
2023-03-29T16:37:59.012Z,99092.25
2023-03-29T16:40:26.056Z,99121.97
2023-03-29T16:42:52.870Z,99087.66
2023-03-29T16:45:20.334Z,99112.72
2023-03-29T16:47:47.105Z,99107.53
2023-03-29T16:50:18.233Z,99098.31
2023-03-29T16:52:47.879Z,99117.78
2023-03-29T16:55:15.695Z,99106.09
2023-03-29T16:57:42.774Z,99084.88
2023-03-29T17:00:16.960Z,99122.75
2023-03-29T17:02:44.148Z,99121.88
2023-03-29T17:05:12.317Z,99130.25
2023-03-29T17:07:39.581Z,99111.91
2023-03-29T17:10:08.271Z,99119.75
2023-03-29T17:12:35.572Z,99127.22
2023-03-29T17:15:02.806Z,99117.75
2023-03-29T17:17:29.756Z,99120.00
2023-03-29T17:19:57.270Z,99128.97
2023-03-29T17:22:24.173Z,99135.97
2023-03-29T17:24:50.884Z,99118.63
2023-03-29T17:27:17.715Z,99103.31
2023-03-29T17:29:44.315Z,99126.75
2023-03-29T17:32:11.142Z,99105.09
2023-03-29T17:34:38.732Z,99114.41
2023-03-29T17:37:05.427Z,99095.31
2023-03-29T17:39:33.310Z,99122.13
2023-03-29T17:41:59.922Z,99093.72
2023-03-29T17:44:26.905Z,99103.44
2023-03-29T17:46:53.579Z,99138.59
2023-03-29T17:49:20.752Z,99112.31
2023-03-29T17:51:47.437Z,99145.03
2023-03-29T17:54:14.024Z,99127.19
2023-03-29T17:56:40.766Z,99130.97
2023-03-29T17:59:07.451Z,99148.44
2023-03-29T18:01:34.912Z,99158.06
2023-03-29T18:04:02.943Z,99128.31
2023-03-29T18:06:29.563Z,99133.94
2023-03-29T18:08:56.754Z,99142.47
2023-03-29T18:11:24.687Z,99162.25
2023-03-29T18:13:53.396Z,99133.13
2023-03-29T18:16:22.860Z,99142.75
2023-03-29T18:18:49.697Z,99163.56
2023-03-29T18:21:17.020Z,99150.69
2023-03-29T18:23:47.027Z,99178.38
2023-03-29T18:26:15.573Z,99167.97
2023-03-29T18:28:43.909Z,99164.03
2023-03-29T18:31:10.642Z,99165.28
2023-03-29T18:33:37.281Z,99171.97
2023-03-29T18:36:10.746Z,99153.84
2023-03-29T18:38:40.638Z,99180.28
2023-03-29T18:41:08.578Z,99174.44
2023-03-29T18:43:35.982Z,99193.81
2023-03-29T18:46:06.737Z,99193.34
2023-03-29T18:48:38.692Z,99204.09
2023-03-29T18:51:07.683Z,99199.28
2023-03-29T18:53:35.768Z,99181.94
2023-03-29T18:56:03.390Z,99186.09
2023-03-29T18:58:30.179Z,99210.50
2023-03-29T19:01:04.315Z,99219.66
2023-03-29T19:03:35.007Z,99216.75
2023-03-29T19:06:02.401Z,99222.84
2023-03-29T19:08:29.597Z,99229.38
2023-03-29T19:11:07.743Z,99226.91
2023-03-29T19:13:35.453Z,99238.59
2023-03-29T19:16:03.913Z,99227.75
2023-03-29T19:18:31.331Z,99189.78
2023-03-29T19:20:57.957Z,99217.94
2023-03-29T19:23:27.235Z,99245.09
2023-03-29T19:26:00.276Z,99237.84
2023-03-29T19:28:27.997Z,99206.28
2023-03-29T19:30:56.303Z,99259.78
2023-03-29T19:33:22.912Z,99226.34
2023-03-29T19:35:51.711Z,99257.09
2023-03-29T19:38:19.365Z,99244.00
2023-03-29T19:40:50.676Z,99248.94
2023-03-29T19:43:18.310Z,99239.56
2023-03-29T19:45:47.078Z,99224.53
2023-03-29T19:48:21.842Z,99252.13
2023-03-29T19:50:50.365Z,99202.72
2023-03-29T19:53:17.087Z,99225.13
2023-03-29T19:55:45.136Z,99249.91
2023-03-29T19:58:15.195Z,99220.03
2023-03-29T20:00:42.029Z,99255.50
2023-03-29T20:03:10.008Z,99252.41
2023-03-29T20:05:40.554Z,99217.06
2023-03-29T20:08:07.809Z,99250.19
2023-03-29T20:10:35.922Z,99272.50
2023-03-29T20:13:06.727Z,99266.31
2023-03-29T20:15:34.028Z,99267.78
2023-03-29T20:18:00.909Z,99244.84
2023-03-29T20:20:28.375Z,99272.44
2023-03-29T20:22:58.547Z,99261.66
2023-03-29T20:25:25.792Z,99276.34
2023-03-29T20:27:53.149Z,99281.16
2023-03-29T20:30:20.146Z,99259.44
2023-03-29T20:32:46.781Z,99290.84
2023-03-29T20:35:13.537Z,99250.53
2023-03-29T20:37:40.286Z,99270.59
2023-03-29T20:40:08.438Z,99272.25
2023-03-29T20:42:36.681Z,99280.41
2023-03-29T20:45:04.584Z,99285.34
2023-03-29T20:47:31.444Z,99276.31
2023-03-29T20:49:58.179Z,99276.00
2023-03-29T20:52:24.818Z,99284.97
2023-03-29T20:54:51.814Z,99283.94
2023-03-29T20:57:20.762Z,99291.19
2023-03-29T20:59:49.202Z,99273.13
2023-03-29T21:02:22.818Z,99279.59
2023-03-29T21:04:53.425Z,99260.03
2023-03-29T21:07:21.423Z,99250.66
2023-03-29T21:09:49.802Z,99283.50
2023-03-29T21:12:16.777Z,99267.06
2023-03-29T21:14:43.594Z,99285.75
2023-03-29T21:17:10.812Z,99295.84
2023-03-29T21:19:39.141Z,99287.94
2023-03-29T21:22:06.060Z,99293.78
2023-03-29T21:24:33.398Z,99287.81
2023-03-29T21:27:00.803Z,99304.16
2023-03-29T21:29:27.713Z,99285.75
2023-03-29T21:31:54.805Z,99283.53
2023-03-29T21:34:21.694Z,99295.13
2023-03-29T21:36:48.331Z,99285.50
2023-03-29T21:39:15.073Z,99277.09
2023-03-29T21:41:41.875Z,99270.50
2023-03-29T21:44:08.819Z,99262.91
2023-03-29T21:46:35.512Z,99264.91
2023-03-29T21:49:02.222Z,99263.75
2023-03-29T21:51:28.825Z,99264.94
2023-03-29T21:53:55.588Z,99261.06
2023-03-29T21:56:22.515Z,99277.91
2023-03-29T21:58:49.293Z,99277.13
2023-03-29T22:01:16.325Z,99293.09
2023-03-29T22:03:43.122Z,99262.63
2023-03-29T22:06:13.600Z,99250.06
2023-03-29T22:08:40.639Z,99281.59
2023-03-29T22:11:14.380Z,99287.38
2023-03-29T22:13:42.501Z,99293.28
2023-03-29T22:16:13.830Z,99303.75
2023-03-29T22:18:43.681Z,99294.19
2023-03-29T22:21:15.105Z,99294.00
2023-03-29T22:23:43.535Z,99283.78
2023-03-29T22:26:12.330Z,99279.59
2023-03-29T22:28:39.514Z,99295.09
2023-03-29T22:31:12.124Z,99284.69
2023-03-29T22:33:39.789Z,99292.16
2023-03-29T22:36:27.051Z,99294.66
2023-03-29T22:38:54.869Z,99302.59
2023-03-29T22:41:26.019Z,99309.59
2023-03-29T22:43:54.343Z,99302.78
2023-03-29T22:46:21.287Z,99321.16
2023-03-29T22:48:48.226Z,99305.34
2023-03-29T22:51:16.172Z,99308.16
2023-03-29T22:53:42.867Z,99305.28
2023-03-29T22:56:09.646Z,99293.41
2023-03-29T22:58:37.658Z,99321.09
2023-03-29T23:01:05.478Z,99304.09
2023-03-29T23:03:32.953Z,99296.06
2023-03-29T23:06:02.409Z,99301.44
2023-03-29T23:08:33.485Z,99315.34
2023-03-29T23:11:00.998Z,99325.56
2023-03-29T23:13:29.107Z,99315.88
2023-03-29T23:15:59.060Z,99303.97
2023-03-29T23:18:27.669Z,99291.06
2023-03-29T23:20:56.480Z,99307.03
2023-03-29T23:23:24.838Z,99311.28
2023-03-29T23:25:52.720Z,99310.25
2023-03-29T23:28:23.336Z,99312.47
2023-03-29T23:31:03.248Z,99319.72
2023-03-29T23:33:33.661Z,99305.66
2023-03-29T23:36:04.812Z,99293.91
2023-03-29T23:38:35.817Z,99290.06
2023-03-29T23:41:05.019Z,99320.78
2023-03-29T23:43:34.226Z,99322.63
2023-03-29T23:46:03.912Z,99293.78
2023-03-29T23:48:31.591Z,99290.06
2023-03-29T23:50:58.369Z,99304.50
2023-03-29T23:53:28.306Z,99304.50
2023-03-29T23:56:01.588Z,99304.69
2023-03-29T23:58:29.798Z,99307.00
